Time;durP1;ratioP1;P1;durP2;ratioP2;P2;SDS_P1;SDS_P2;PMS_P1;PMS_P2;Temp;Humidity;BMP_temperature;BMP_pressure;BME280_temperature;BME280_humidity;BME280_pressure;Samples;Min_cycle;Max_cycle;Signal;HPM_P1;HPM_P2
2023/06/03 00:01:58;;;;;;;13.82;6.55;;;14.80;95.70;;;;;;5020735;28;20104;-58
2023/06/03 00:04:24;;;;;;;12.07;5.72;;;14.70;95.90;;;;;;5050415;28;20361;-58
2023/06/03 00:06:50;;;;;;;11.32;5.43;;;14.60;96.10;;;;;;5038380;28;20155;-58
2023/06/03 00:09:15;;;;;;;10.77;4.93;;;14.60;96.30;;;;;;5023329;28;20057;-58
2023/06/03 00:11:42;;;;;;;5.93;3.47;;;14.50;96.50;;;;;;5024841;28;20610;-58
2023/06/03 00:14:08;;;;;;;7.85;5.88;;;14.50;96.60;;;;;;5020554;28;20041;-59
2023/06/03 00:16:34;;;;;;;7.78;3.47;;;14.50;96.60;;;;;;5021809;28;20885;-58
2023/06/03 00:19:00;;;;;;;11.90;5.85;;;14.50;96.80;;;;;;5007655;28;20921;-58
2023/06/03 00:21:27;;;;;;;8.85;4.72;;;14.50;96.80;;;;;;5023961;28;20052;-58
2023/06/03 00:23:53;;;;;;;9.48;6.18;;;14.40;97.00;;;;;;5022931;28;20771;-58
2023/06/03 00:26:20;;;;;;;14.77;5.57;;;14.30;97.20;;;;;;5019121;28;20350;-58
2023/06/03 00:28:46;;;;;;;18.48;6.50;;;14.30;97.30;;;;;;5022590;28;20046;-62
2023/06/03 00:31:12;;;;;;;14.60;6.45;;;14.30;97.40;;;;;;5021858;28;20041;-58
2023/06/03 00:33:37;;;;;;;12.32;5.70;;;14.30;97.50;;;;;;5022134;28;20057;-59
2023/06/03 00:36:03;;;;;;;17.02;5.97;;;14.30;97.60;;;;;;5021952;28;20092;-59
2023/06/03 00:38:29;;;;;;;12.45;5.63;;;14.20;97.70;;;;;;5023058;28;20149;-59
2023/06/03 00:40:54;;;;;;;11.05;5.63;;;14.20;97.60;;;;;;5021849;28;20513;-59
2023/06/03 00:43:20;;;;;;;13.85;5.60;;;14.20;97.80;;;;;;5021962;28;20092;-59
2023/06/03 00:45:46;;;;;;;14.15;5.85;;;14.20;98.00;;;;;;5021096;28;20057;-58
2023/06/03 00:48:12;;;;;;;12.70;5.25;;;14.10;98.10;;;;;;5023136;28;20535;-58
2023/06/03 00:50:39;;;;;;;9.75;6.15;;;14.10;98.20;;;;;;5022897;28;20501;-60
2023/06/03 00:53:05;;;;;;;15.35;5.70;;;14.10;98.30;;;;;;5022477;28;20034;-58
2023/06/03 00:55:32;;;;;;;10.30;4.65;;;14.00;98.30;;;;;;5023926;28;20373;-58
2023/06/03 00:57:58;;;;;;;16.15;5.75;;;14.00;99.00;;;;;;5022857;28;20042;-58
2023/06/03 01:00:25;;;;;;;9.88;7.03;;;13.90;98.60;;;;;;5053630;28;20058;-59
2023/06/03 01:02:50;;;;;;;12.07;7.05;;;13.90;98.80;;;;;;5021064;28;20042;-58
2023/06/03 01:05:16;;;;;;;17.02;5.05;;;13.90;98.80;;;;;;5027544;28;20499;-59
2023/06/03 01:08:00;;;;;;;8.00;5.20;;;13.90;98.90;;;;;;5026517;28;20223;-58
2023/06/03 01:10:46;;;;;;;16.20;7.25;;;13.80;99.10;;;;;;5027039;28;20038;-58
2023/06/03 01:13:27;;;;;;;9.55;5.43;;;13.80;99.30;;;;;;5026307;28;20978;-59
2023/06/03 01:15:55;;;;;;;18.80;7.38;;;13.70;99.30;;;;;;5027008;28;20042;-58
2023/06/03 01:18:21;;;;;;;12.82;6.70;;;13.70;99.50;;;;;;5026768;28;20083;-58
2023/06/03 01:20:48;;;;;;;9.38;6.32;;;13.70;99.70;;;;;;5022842;28;20049;-59
2023/06/03 01:23:14;;;;;;;14.50;7.43;;;13.70;99.80;;;;;;5025887;28;20050;-59
2023/06/03 01:25:42;;;;;;;10.32;5.00;;;13.60;99.90;;;;;;5024355;28;20107;-59
2023/06/03 01:28:08;;;;;;;13.27;6.72;;;13.60;99.90;;;;;;5023573;28;20069;-58
2023/06/03 01:30:34;;;;;;;16.70;6.95;;;13.60;99.90;;;;;;5023100;28;20519;-59
2023/06/03 01:33:02;;;;;;;23.90;8.90;;;13.50;99.90;;;;;;5024203;28;20072;-58
2023/06/03 01:35:28;;;;;;;12.00;8.48;;;13.50;99.90;;;;;;5024345;28;20057;-58
2023/06/03 01:37:55;;;;;;;34.58;7.90;;;13.50;99.90;;;;;;5026012;28;20046;-58
2023/06/03 01:40:21;;;;;;;15.25;7.80;;;13.50;99.90;;;;;;5025465;28;20048;-59
2023/06/03 01:42:46;;;;;;;12.38;7.03;;;13.50;99.90;;;;;;5024931;28;20452;-58
2023/06/03 01:45:12;;;;;;;19.33;7.93;;;13.40;99.90;;;;;;5023277;28;20080;-59
2023/06/03 01:47:38;;;;;;;13.32;6.63;;;13.40;99.90;;;;;;5007863;28;20188;-58
2023/06/03 01:50:04;;;;;;;18.60;7.07;;;13.40;99.90;;;;;;5023883;28;20402;-60
2023/06/03 01:52:30;;;;;;;14.73;7.57;;;13.40;99.90;;;;;;5025433;28;20591;-59
2023/06/03 01:54:56;;;;;;;13.40;6.40;;;13.40;99.90;;;;;;5024826;28;20038;-58
2023/06/03 01:57:21;;;;;;;20.35;8.43;;;13.40;99.90;;;;;;5024370;28;20140;-58
2023/06/03 01:59:47;;;;;;;16.00;8.25;;;13.30;99.90;;;;;;5020242;28;20042;-58
2023/06/03 02:02:13;;;;;;;19.52;7.45;;;13.30;99.90;;;;;;5025679;28;20520;-59
2023/06/03 02:04:39;;;;;;;21.00;10.27;;;13.30;99.90;;;;;;5024345;28;20042;-59
2023/06/03 02:07:06;;;;;;;15.15;7.75;;;13.20;99.90;;;;;;5024601;28;20045;-58
2023/06/03 02:09:31;;;;;;;18.20;9.52;;;13.20;99.90;;;;;;5023433;28;20045;-58
2023/06/03 02:11:59;;;;;;;41.10;10.55;;;13.20;99.90;;;;;;5023591;28;20046;-58
2023/06/03 02:14:26;;;;;;;16.40;7.63;;;13.20;99.90;;;;;;5021029;28;20041;-58
2023/06/03 02:16:52;;;;;;;19.85;8.30;;;13.20;99.90;;;;;;5026222;28;20042;-58
2023/06/03 02:19:20;;;;;;;21.80;8.93;;;13.10;99.90;;;;;;5023538;28;20537;-58
2023/06/03 02:21:47;;;;;;;14.75;7.88;;;13.10;99.90;;;;;;5023759;28;20046;-58
2023/06/03 02:24:14;;;;;;;22.98;9.45;;;13.10;99.90;;;;;;5024107;28;20048;-58
2023/06/03 02:26:49;;;;;;;22.13;8.68;;;13.10;99.90;;;;;;5024796;28;20052;-59
2023/06/03 02:29:18;;;;;;;16.42;10.85;;;13.10;99.90;;;;;;5024681;28;20053;-58
2023/06/03 02:31:45;;;;;;;16.73;9.48;;;13.10;99.90;;;;;;5022060;28;20049;-58
2023/06/03 02:34:11;;;;;;;21.38;9.90;;;13.00;99.90;;;;;;5023106;28;20042;-58
2023/06/03 02:36:38;;;;;;;19.52;6.43;;;13.00;99.90;;;;;;5022688;28;20086;-59
2023/06/03 02:39:04;;;;;;;20.38;9.40;;;13.00;99.90;;;;;;5024096;28;20068;-58
2023/06/03 02:41:30;;;;;;;15.70;9.25;;;13.00;99.90;;;;;;5022940;28;20144;-58
2023/06/03 02:43:56;;;;;;;18.55;10.57;;;12.90;99.90;;;;;;5022967;28;20045;-58
2023/06/03 02:46:22;;;;;;;23.05;11.90;;;12.90;99.90;;;;;;5025193;28;20061;-58
2023/06/03 02:48:47;;;;;;;19.02;10.75;;;12.90;99.90;;;;;;5023798;28;20038;-58
2023/06/03 02:51:13;;;;;;;29.80;10.57;;;12.90;99.90;;;;;;5019969;28;20427;-58
2023/06/03 02:53:39;;;;;;;23.92;10.38;;;12.90;99.90;;;;;;5022474;28;20117;-58
2023/06/03 02:56:05;;;;;;;16.70;6.63;;;12.90;99.90;;;;;;5024725;28;20042;-58
2023/06/03 02:58:30;;;;;;;24.73;10.57;;;12.80;99.90;;;;;;5023236;28;20045;-59
2023/06/03 03:00:57;;;;;;;22.95;10.48;;;12.80;99.90;;;;;;5023360;28;20038;-59
2023/06/03 03:03:24;;;;;;;24.15;13.30;;;12.80;99.90;;;;;;5023689;28;20042;-58
2023/06/03 03:05:51;;;;;;;21.73;10.55;;;12.70;99.90;;;;;;5022782;28;20125;-58
2023/06/03 03:08:17;;;;;;;16.35;7.80;;;12.80;99.90;;;;;;5022281;28;20038;-58
2023/06/03 03:10:43;;;;;;;17.02;8.65;;;12.70;99.90;;;;;;5023162;28;20398;-58
2023/06/03 03:13:09;;;;;;;19.27;10.25;;;12.70;99.90;;;;;;5019833;28;20622;-59
2023/06/03 03:15:35;;;;;;;24.65;12.18;;;12.70;99.90;;;;;;5024081;28;20081;-57
2023/06/03 03:18:00;;;;;;;14.57;7.63;;;12.70;99.90;;;;;;5024040;28;20045;-58
2023/06/03 03:20:29;;;;;;;27.77;10.35;;;12.70;99.90;;;;;;5023674;28;20125;-58
2023/06/03 03:22:54;;;;;;;22.15;11.18;;;12.70;99.90;;;;;;5019737;28;20105;-58
2023/06/03 03:25:21;;;;;;;20.92;8.68;;;12.70;99.90;;;;;;5023465;28;20050;-58
2023/06/03 03:27:47;;;;;;;28.40;9.43;;;12.70;99.90;;;;;;5021705;28;20045;-57
2023/06/03 03:30:13;;;;;;;21.95;12.50;;;12.70;99.90;;;;;;5022328;28;20050;-58
2023/06/03 03:32:38;;;;;;;27.35;13.05;;;12.60;99.90;;;;;;5022888;28;20049;-58
2023/06/03 03:35:12;;;;;;;25.13;11.02;;;12.70;99.90;;;;;;5023838;28;20124;-59
2023/06/03 03:37:38;;;;;;;25.50;11.57;;;12.70;99.90;;;;;;5023031;28;20040;-58
2023/06/03 03:40:06;;;;;;;29.58;11.48;;;12.60;99.90;;;;;;5024060;28;20046;-58
2023/06/03 03:42:32;;;;;;;23.92;13.60;;;12.60;99.90;;;;;;5023735;28;20189;-58
2023/06/03 03:45:00;;;;;;;27.70;13.13;;;12.60;99.90;;;;;;5021579;28;20053;-58
2023/06/03 03:47:27;;;;;;;27.50;11.85;;;12.60;99.90;;;;;;5022283;28;20061;-58
2023/06/03 03:49:52;;;;;;;21.08;10.35;;;12.60;99.90;;;;;;5022526;28;21212;-59
2023/06/03 03:52:28;;;;;;;20.67;11.57;;;12.60;99.90;;;;;;5023516;28;20120;-59
2023/06/03 03:54:54;;;;;;;30.33;11.73;;;12.60;99.90;;;;;;5022593;28;20650;-58
2023/06/03 03:57:23;;;;;;;26.27;10.95;;;12.50;99.90;;;;;;5020859;28;20076;-58
2023/06/03 03:59:48;;;;;;;19.48;9.85;;;12.50;99.90;;;;;;5018812;28;20042;-58
2023/06/03 04:02:14;;;;;;;16.55;9.20;;;12.50;99.90;;;;;;5023122;28;20050;-58
2023/06/03 04:04:44;;;;;;;14.23;7.80;;;12.50;99.90;;;;;;5022644;28;20053;-59
2023/06/03 04:07:14;;;;;;;25.52;9.55;;;12.50;99.90;;;;;;5022781;28;20665;-58
2023/06/03 04:09:42;;;;;;;29.23;12.45;;;12.50;99.90;;;;;;5023210;28;20050;-58
2023/06/03 04:12:21;;;;;;;25.67;12.68;;;12.40;99.90;;;;;;5023325;28;20175;-60
2023/06/03 04:14:50;;;;;;;30.25;13.23;;;12.40;99.90;;;;;;5022867;28;20050;-58
2023/06/03 04:17:21;;;;;;;20.75;11.95;;;12.50;99.90;;;;;;5021864;28;20065;-58
2023/06/03 04:19:48;;;;;;;25.63;11.60;;;12.50;99.90;;;;;;5022670;28;20038;-59
2023/06/03 04:22:21;;;;;;;24.13;10.63;;;12.50;99.90;;;;;;5021817;28;20073;-58
2023/06/03 04:25:00;;;;;;;23.00;10.20;;;12.50;99.90;;;;;;5019924;28;20046;-58
2023/06/03 04:27:26;;;;;;;21.35;9.52;;;12.50;99.90;;;;;;5018237;28;20041;-59
2023/06/03 04:29:52;;;;;;;22.98;12.55;;;12.50;99.90;;;;;;5023468;28;20524;-58
2023/06/03 04:32:18;;;;;;;37.30;13.80;;;12.40;99.90;;;;;;5019042;28;20045;-58
2023/06/03 04:34:54;;;;;;;34.25;12.82;;;12.40;99.90;;;;;;5004623;28;20475;-58
2023/06/03 04:37:21;;;;;;;32.25;11.63;;;12.50;99.90;;;;;;5021756;28;20534;-58
2023/06/03 04:39:48;;;;;;;20.20;10.05;;;12.50;99.90;;;;;;5028228;28;20132;-58
2023/06/03 04:42:15;;;;;;;18.50;10.90;;;12.50;99.90;;;;;;5025847;28;20424;-58
2023/06/03 04:44:42;;;;;;;31.67;12.80;;;12.50;99.90;;;;;;5024328;28;20093;-58
2023/06/03 04:47:10;;;;;;;24.42;12.32;;;12.50;99.90;;;;;;5025170;28;20057;-58
2023/06/03 04:49:39;;;;;;;13.57;7.28;;;12.50;99.90;;;;;;5027344;28;20054;-58
2023/06/03 04:52:09;;;;;;;33.35;14.15;;;12.50;99.90;;;;;;5024498;28;20046;-58
2023/06/03 04:54:40;;;;;;;24.35;13.23;;;12.50;99.90;;;;;;5026927;28;20455;-58
2023/06/03 04:57:06;;;;;;;33.63;11.23;;;12.50;99.90;;;;;;5023731;28;20567;-58
2023/06/03 04:59:33;;;;;;;21.13;10.88;;;12.50;99.90;;;;;;5025869;28;20504;-60
2023/06/03 05:01:58;;;;;;;28.98;14.40;;;12.50;99.90;;;;;;5026795;28;20048;-59
2023/06/03 05:04:29;;;;;;;25.30;13.57;;;12.60;99.90;;;;;;5026576;28;20703;-58
2023/06/03 05:07:00;;;;;;;26.42;12.93;;;12.60;99.90;;;;;;5027951;28;20624;-59
2023/06/03 05:09:26;;;;;;;30.52;13.98;;;12.60;99.90;;;;;;5025085;28;20448;-58
2023/06/03 05:11:52;;;;;;;22.42;11.65;;;12.50;99.90;;;;;;5026793;28;20574;-55
2023/06/03 05:14:18;;;;;;;26.65;12.05;;;12.60;99.90;;;;;;5025614;28;20057;-55
2023/06/03 05:16:43;;;;;;;26.13;12.02;;;12.70;99.90;;;;;;5026671;28;20038;-56
2023/06/03 05:19:09;;;;;;;25.65;10.65;;;12.70;99.90;;;;;;5056731;28;20512;-57
2023/06/03 05:21:35;;;;;;;23.20;12.38;;;12.70;99.90;;;;;;5026794;28;20050;-55
2023/06/03 05:24:01;;;;;;;20.23;10.90;;;12.80;99.90;;;;;;5026282;28;20049;-55
2023/06/03 05:26:26;;;;;;;19.02;9.32;;;12.70;99.90;;;;;;5025602;28;20037;-55
2023/06/03 05:28:52;;;;;;;17.73;9.38;;;12.70;99.90;;;;;;5024033;28;20041;-55
2023/06/03 05:31:18;;;;;;;28.08;12.88;;;12.80;99.90;;;;;;5024044;28;20046;-56
2023/06/03 05:33:44;;;;;;;22.45;11.05;;;12.70;99.90;;;;;;5025562;28;20046;-54
2023/06/03 05:36:10;;;;;;;19.08;10.30;;;12.70;99.90;;;;;;5027617;28;20132;-54
2023/06/03 05:38:36;;;;;;;21.58;10.32;;;12.80;99.90;;;;;;5025299;28;20046;-54
2023/06/03 05:41:03;;;;;;;19.27;11.07;;;12.80;99.90;;;;;;5023888;28;20038;-54
2023/06/03 05:43:29;;;;;;;19.92;12.77;;;12.80;99.90;;;;;;5023602;28;20526;-55
2023/06/03 05:45:56;;;;;;;25.13;12.65;;;12.70;99.90;;;;;;5026698;28;20801;-55
2023/06/03 05:48:21;;;;;;;29.40;12.15;;;12.80;99.90;;;;;;5025350;28;20470;-56
2023/06/03 05:50:50;;;;;;;21.50;12.73;;;12.80;99.90;;;;;;4994744;28;20770;-55
2023/06/03 05:53:20;;;;;;;30.77;13.32;;;12.60;99.90;;;;;;5026647;28;20484;-55
2023/06/03 05:55:49;;;;;;;28.08;12.73;;;12.80;99.90;;;;;;5026340;28;20072;-56
2023/06/03 05:58:16;;;;;;;27.35;10.95;;;12.80;99.90;;;;;;5025517;28;20677;-55
2023/06/03 06:00:42;;;;;;;22.80;12.52;;;12.80;99.90;;;;;;5021981;28;20038;-54
2023/06/03 06:03:07;;;;;;;21.58;10.38;;;12.80;99.90;;;;;;5022294;28;20437;-59
2023/06/03 06:05:33;;;;;;;23.85;10.35;;;12.80;99.90;;;;;;5020781;28;20055;-55
2023/06/03 06:07:59;;;;;;;23.63;12.20;;;12.90;99.90;;;;;;5025268;28;20513;-56
2023/06/03 06:10:25;;;;;;;16.60;9.13;;;12.90;99.90;;;;;;5026241;28;20050;-55
2023/06/03 06:12:50;;;;;;;24.27;11.50;;;12.90;99.90;;;;;;5025751;28;20052;-54
2023/06/03 06:15:16;;;;;;;20.60;10.80;;;13.00;99.90;;;;;;5004995;28;20699;-54
2023/06/03 06:17:45;;;;;;;22.10;11.85;;;13.00;99.90;;;;;;5021949;28;20121;-56
2023/06/03 06:20:11;;;;;;;23.98;10.38;;;13.00;99.90;;;;;;5024765;28;20041;-55
2023/06/03 06:22:37;;;;;;;27.80;11.65;;;13.00;99.90;;;;;;5021937;28;20053;-55
2023/06/03 06:25:06;;;;;;;20.10;7.35;;;13.00;99.90;;;;;;5026894;28;20099;-56
2023/06/03 06:27:33;;;;;;;14.77;6.82;;;13.00;99.90;;;;;;5023772;28;20124;-56
2023/06/03 06:29:59;;;;;;;22.77;11.93;;;13.00;99.90;;;;;;5024404;28;20129;-55
2023/06/03 06:32:26;;;;;;;17.52;7.95;;;13.10;99.90;;;;;;5020402;28;20046;-55
2023/06/03 06:34:52;;;;;;;15.65;9.32;;;13.10;99.90;;;;;;5024291;28;20125;-56
2023/06/03 06:37:19;;;;;;;28.30;11.75;;;13.10;99.90;;;;;;5021067;28;20068;-55
2023/06/03 06:39:51;;;;;;;25.75;10.18;;;13.20;99.90;;;;;;5023825;28;20083;-55
2023/06/03 06:42:32;;;;;;;25.95;11.15;;;13.20;99.90;;;;;;5024176;28;20045;-55
2023/06/03 06:45:00;;;;;;;10.98;4.95;;;13.20;99.90;;;;;;5024645;28;20100;-56
2023/06/03 06:47:27;;;;;;;18.52;12.50;;;13.30;99.90;;;;;;5021570;28;20551;-55
2023/06/03 06:49:56;;;;;;;26.48;11.52;;;13.30;99.90;;;;;;5023529;28;20045;-55
2023/06/03 06:52:23;;;;;;;21.85;10.25;;;13.30;99.90;;;;;;5024398;28;20483;-54
2023/06/03 06:54:49;;;;;;;16.67;8.77;;;13.40;99.90;;;;;;5008516;28;20116;-55
2023/06/03 06:57:23;;;;;;;14.75;6.03;;;13.40;99.90;;;;;;5024137;28;20050;-55
2023/06/03 06:59:52;;;;;;;14.15;6.75;;;13.40;99.90;;;;;;5023818;28;20033;-55
2023/06/03 07:02:18;;;;;;;19.38;9.60;;;13.40;99.90;;;;;;5022795;28;20076;-55
2023/06/03 07:04:44;;;;;;;21.95;11.93;;;13.40;99.90;;;;;;5023851;28;20046;-54
2023/06/03 07:07:10;;;;;;;25.17;11.15;;;13.50;99.90;;;;;;5007997;28;20080;-55
2023/06/03 07:09:36;;;;;;;22.58;10.10;;;13.50;99.90;;;;;;5018235;28;20045;-55
2023/06/03 07:12:01;;;;;;;19.48;7.50;;;13.60;99.90;;;;;;5022616;28;20133;-55
2023/06/03 07:14:30;;;;;;;15.35;7.35;;;13.60;99.90;;;;;;5021878;28;20057;-55
2023/06/03 07:16:56;;;;;;;22.55;11.05;;;13.60;99.90;;;;;;5024752;28;20045;-55
2023/06/03 07:19:22;;;;;;;26.65;11.48;;;13.70;99.90;;;;;;5024511;28;20045;-55
2023/06/03 07:21:50;;;;;;;17.52;9.27;;;13.70;99.90;;;;;;5025475;28;20078;-55
2023/06/03 07:24:16;;;;;;;23.20;9.90;;;13.70;99.90;;;;;;5022088;28;20501;-55
2023/06/03 07:26:42;;;;;;;20.67;9.88;;;13.80;99.90;;;;;;5023431;28;20056;-55
2023/06/03 07:29:08;;;;;;;21.15;9.80;;;13.90;99.90;;;;;;5021043;28;20164;-55
2023/06/03 07:31:36;;;;;;;18.70;8.57;;;13.90;99.90;;;;;;5019630;28;20076;-55
2023/06/03 07:34:02;;;;;;;19.58;9.65;;;14.00;99.90;;;;;;5019678;28;20128;-54
2023/06/03 07:36:28;;;;;;;24.27;9.60;;;14.00;99.90;;;;;;5019325;28;20063;-55
2023/06/03 07:39:06;;;;;;;25.92;9.30;;;14.00;99.90;;;;;;5022520;28;20493;-56
2023/06/03 07:41:34;;;;;;;12.48;7.70;;;14.10;99.90;;;;;;5022227;28;20115;-57
2023/06/03 07:44:00;;;;;;;16.45;8.68;;;14.20;99.90;;;;;;5055280;28;20512;-55
2023/06/03 07:46:58;;;;;;;14.23;8.77;;;14.20;99.90;;;;;;5025984;28;20095;-55
2023/06/03 07:49:24;;;;;;;18.40;8.23;;;14.30;99.90;;;;;;5021206;28;20047;-55
2023/06/03 07:51:51;;;;;;;20.27;7.47;;;14.30;99.90;;;;;;5023943;28;20048;-55
2023/06/03 07:54:18;;;;;;;15.70;8.68;;;14.40;99.90;;;;;;5023704;28;20049;-55
2023/06/03 07:56:45;;;;;;;16.80;8.65;;;14.50;99.90;;;;;;5024082;28;20050;-55
2023/06/03 07:59:13;;;;;;;14.90;8.18;;;14.50;99.90;;;;;;5025112;28;20042;-56
2023/06/03 08:01:39;;;;;;;19.05;7.55;;;14.50;99.90;;;;;;5022216;28;20117;-55
2023/06/03 08:04:19;;;;;;;13.15;6.93;;;14.60;99.90;;;;;;5022785;28;20551;-59
2023/06/03 08:06:46;;;;;;;17.33;9.23;;;14.60;99.90;;;;;;5023742;28;20570;-55
2023/06/03 08:09:22;;;;;;;16.08;6.28;;;14.60;99.90;;;;;;5023824;28;20562;-55
2023/06/03 08:11:47;;;;;;;17.23;8.73;;;14.70;99.90;;;;;;5023937;28;20045;-55
2023/06/03 08:14:13;;;;;;;14.88;6.75;;;14.70;99.90;;;;;;5022840;28;20325;-55
2023/06/03 08:16:39;;;;;;;14.75;6.55;;;14.80;99.90;;;;;;5027476;28;20033;-55
2023/06/03 08:19:07;;;;;;;11.48;6.75;;;14.90;99.90;;;;;;5024070;28;20164;-56
2023/06/03 08:21:33;;;;;;;14.05;6.93;;;14.90;99.90;;;;;;5026794;28;20042;-56
2023/06/03 08:24:00;;;;;;;13.98;6.40;;;15.00;99.90;;;;;;5026097;28;20130;-56
2023/06/03 08:26:26;;;;;;;18.83;6.95;;;15.00;99.90;;;;;;5023335;28;20037;-55
2023/06/03 08:28:52;;;;;;;14.25;6.03;;;15.10;99.90;;;;;;5024872;28;21085;-55
2023/06/03 08:31:18;;;;;;;15.77;5.97;;;15.10;99.90;;;;;;5025687;28;20120;-55
2023/06/03 08:33:44;;;;;;;11.48;5.78;;;15.20;99.90;;;;;;5024139;28;20045;-60
2023/06/03 08:36:11;;;;;;;13.82;5.88;;;15.20;99.90;;;;;;5024171;28;20538;-55
2023/06/03 08:38:39;;;;;;;15.13;6.65;;;15.10;99.90;;;;;;5043659;28;20533;-55
2023/06/03 08:41:06;;;;;;;15.55;6.03;;;15.30;99.90;;;;;;5027497;28;20044;-55
2023/06/03 08:43:53;;;;;;;16.38;5.90;;;15.40;99.90;;;;;;5059693;28;20290;-56
2023/06/03 08:46:29;;;;;;;8.45;4.60;;;15.40;99.90;;;;;;5024971;28;20557;-55
2023/06/03 08:49:22;;;;;;;18.35;6.88;;;15.50;99.90;;;;;;5024819;28;20609;-55
2023/06/03 08:51:53;;;;;;;19.08;7.10;;;15.50;99.90;;;;;;5025154;28;20053;-55
2023/06/03 08:54:23;;;;;;;17.42;7.93;;;15.50;99.90;;;;;;5027376;28;20088;-55
2023/06/03 08:57:05;;;;;;;19.05;6.50;;;15.60;99.90;;;;;;5025338;28;20057;-55
2023/06/03 08:59:34;;;;;;;14.82;5.15;;;15.60;99.90;;;;;;5025070;28;20041;-56
2023/06/03 09:02:03;;;;;;;12.32;5.82;;;15.70;99.90;;;;;;5027256;28;20065;-55
2023/06/03 09:04:30;;;;;;;9.88;6.13;;;15.70;99.90;;;;;;5025732;28;20044;-56
2023/06/03 09:06:57;;;;;;;14.00;6.25;;;15.80;99.90;;;;;;5026936;28;20042;-55
2023/06/03 09:09:24;;;;;;;14.00;5.47;;;15.80;99.90;;;;;;5024530;28;20062;-55
2023/06/03 09:11:51;;;;;;;14.90;5.78;;;15.90;99.90;;;;;;5023886;28;20502;-56
2023/06/03 09:14:18;;;;;;;15.32;6.18;;;15.90;99.90;;;;;;5026014;28;20037;-56
2023/06/03 09:16:44;;;;;;;14.60;6.40;;;16.00;99.90;;;;;;5026904;28;20088;-55
2023/06/03 09:19:10;;;;;;;12.82;4.38;;;16.00;99.90;;;;;;5026210;28;20069;-55
2023/06/03 09:21:40;;;;;;;12.52;4.75;;;16.10;99.90;;;;;;5027124;28;20656;-55
2023/06/03 09:24:05;;;;;;;18.75;6.47;;;16.20;99.90;;;;;;5024997;28;20038;-55
2023/06/03 09:26:31;;;;;;;11.80;5.80;;;16.20;99.90;;;;;;5041650;28;20088;-55
2023/06/03 09:28:58;;;;;;;18.52;5.28;;;16.30;99.90;;;;;;5026331;28;20156;-55
2023/06/03 09:31:24;;;;;;;14.45;5.88;;;16.40;99.90;;;;;;5026916;28;20527;-55
2023/06/03 09:33:51;;;;;;;10.48;4.03;;;16.40;99.90;;;;;;5024042;28;20046;-56
2023/06/03 09:36:17;;;;;;;13.77;6.25;;;16.40;99.90;;;;;;5021430;28;20524;-55
2023/06/03 09:38:54;;;;;;;12.30;4.75;;;16.50;99.90;;;;;;5021682;28;20129;-55
2023/06/03 09:41:21;;;;;;;12.45;4.93;;;16.50;99.90;;;;;;5026664;28;20042;-55
2023/06/03 09:44:02;;;;;;;9.48;5.47;;;16.60;99.90;;;;;;5026162;28;20041;-56
2023/06/03 09:46:32;;;;;;;10.90;4.45;;;16.60;99.90;;;;;;5026554;28;21036;-56
2023/06/03 09:49:18;;;;;;;7.50;4.80;;;16.70;99.90;;;;;;5027185;28;20038;-55
2023/06/03 09:51:48;;;;;;;12.57;4.88;;;16.70;99.90;;;;;;5024630;28;20551;-55
2023/06/03 09:54:25;;;;;;;6.45;4.68;;;16.90;99.90;;;;;;5026392;28;20080;-55
2023/06/03 09:56:51;;;;;;;10.88;4.57;;;16.90;99.90;;;;;;5024875;28;20041;-55
2023/06/03 09:59:25;;;;;;;7.65;4.40;;;16.90;99.90;;;;;;5024441;28;20041;-56
2023/06/03 10:01:53;;;;;;;9.32;4.00;;;17.00;99.90;;;;;;5024400;28;20045;-54
2023/06/03 10:04:22;;;;;;;8.68;4.25;;;17.00;99.90;;;;;;5025582;28;20085;-55
2023/06/03 10:07:09;;;;;;;7.30;5.00;;;17.10;99.90;;;;;;5025734;28;20052;-56
2023/06/03 10:09:35;;;;;;;7.00;4.35;;;17.10;99.90;;;;;;5025125;28;20049;-55
2023/06/03 10:12:02;;;;;;;9.20;3.75;;;17.20;99.90;;;;;;5025509;28;20064;-55
2023/06/03 10:14:28;;;;;;;9.18;4.63;;;17.30;99.90;;;;;;5023047;28;20045;-55
2023/06/03 10:17:08;;;;;;;9.43;4.35;;;17.40;99.90;;;;;;5026063;28;20535;-55
2023/06/03 10:19:39;;;;;;;8.68;4.72;;;17.40;99.90;;;;;;5025149;28;20120;-56
2023/06/03 10:22:07;;;;;;;9.90;4.07;;;17.50;99.90;;;;;;5057671;28;20045;-58
2023/06/03 10:24:42;;;;;;;9.63;5.32;;;17.50;99.90;;;;;;5023056;28;20132;-55
2023/06/03 10:27:09;;;;;;;9.48;5.05;;;17.60;99.90;;;;;;5024911;28;20084;-55
2023/06/03 10:29:36;;;;;;;8.32;4.43;;;17.60;99.90;;;;;;5025336;28;20076;-55
2023/06/03 10:32:05;;;;;;;10.32;5.43;;;17.60;99.90;;;;;;5026492;28;20046;-55
2023/06/03 10:34:34;;;;;;;8.10;4.85;;;17.70;99.90;;;;;;5054949;28;20528;-55
2023/06/03 10:37:02;;;;;;;12.00;6.25;;;17.80;99.90;;;;;;5024449;28;20076;-55
2023/06/03 10:39:32;;;;;;;13.63;6.68;;;17.90;99.90;;;;;;5025767;28;20046;-56
2023/06/03 10:42:00;;;;;;;9.85;5.05;;;17.90;99.90;;;;;;5023510;28;20540;-55
2023/06/03 10:44:27;;;;;;;11.32;5.53;;;18.00;99.90;;;;;;5025607;28;20075;-55
2023/06/03 10:47:08;;;;;;;13.20;5.50;;;18.00;99.30;;;;;;5024622;28;20050;-55
2023/06/03 10:49:48;;;;;;;12.55;4.63;;;18.00;99.20;;;;;;5026453;28;20042;-54
2023/06/03 10:52:32;;;;;;;8.65;5.50;;;18.00;99.00;;;;;;5020916;28;20122;-55
2023/06/03 10:55:25;;;;;;;7.75;4.95;;;18.10;98.80;;;;;;5017211;28;20045;-55
2023/06/03 10:58:06;;;;;;;12.48;6.22;;;18.20;97.90;;;;;;5021804;28;20125;-55
2023/06/03 11:01:01;;;;;;;10.68;6.20;;;18.20;98.10;;;;;;5021396;28;20128;-55
2023/06/03 11:03:31;;;;;;;11.05;6.50;;;18.20;98.20;;;;;;5024562;28;20125;-55
2023/06/03 11:06:18;;;;;;;10.60;6.32;;;18.30;98.10;;;;;;5024847;28;20274;-55
2023/06/03 11:09:00;;;;;;;10.05;5.57;;;18.30;98.10;;;;;;5025617;28;20050;-60
2023/06/03 11:11:39;;;;;;;14.70;6.35;;;18.30;97.80;;;;;;5024207;28;20519;-57
2023/06/03 11:14:05;;;;;;;11.93;5.20;;;18.30;97.40;;;;;;5022330;28;20038;-55
2023/06/03 11:16:50;;;;;;;14.82;7.25;;;18.30;97.40;;;;;;5023860;28;20049;-55
2023/06/03 11:19:33;;;;;;;9.13;4.57;;;18.40;97.20;;;;;;5021807;28;20527;-55
2023/06/03 11:22:00;;;;;;;6.50;4.22;;;18.50;96.80;;;;;;5021433;28;20590;-55
2023/06/03 11:24:38;;;;;;;7.95;4.60;;;18.50;96.90;;;;;;5023163;28;20056;-55
2023/06/03 11:27:10;;;;;;;12.80;3.78;;;18.60;96.50;;;;;;5025283;28;20069;-55
2023/06/03 11:29:56;;;;;;;10.63;4.38;;;18.60;95.60;;;;;;5024158;28;20455;-55
2023/06/03 11:32:26;;;;;;;8.45;4.63;;;18.70;95.30;;;;;;5007556;28;20146;-55
2023/06/03 11:35:04;;;;;;;6.70;4.80;;;18.70;95.60;;;;;;5025427;28;20054;-55
2023/06/03 11:37:45;;;;;;;9.15;3.80;;;18.70;95.70;;;;;;5022292;28;20030;-55
2023/06/03 11:40:16;;;;;;;10.73;4.85;;;18.70;95.70;;;;;;5020991;28;20049;-55
2023/06/03 11:42:48;;;;;;;9.83;4.40;;;18.80;95.70;;;;;;5020871;28;20562;-55
2023/06/03 11:45:28;;;;;;;10.95;5.43;;;18.90;95.50;;;;;;5023055;28;20057;-55
2023/06/03 11:47:59;;;;;;;8.73;4.60;;;18.90;95.40;;;;;;5022692;28;20506;-55
2023/06/03 11:50:26;;;;;;;9.77;5.30;;;18.90;95.40;;;;;;5021880;28;20558;-55
2023/06/03 11:52:52;;;;;;;10.10;5.03;;;19.00;95.40;;;;;;5022869;28;20069;-55
2023/06/03 11:55:36;;;;;;;9.52;3.90;;;19.00;95.10;;;;;;5024196;28;20050;-55
2023/06/03 11:58:12;;;;;;;15.35;5.35;;;19.10;95.00;;;;;;5023405;28;20042;-55
2023/06/03 12:00:38;;;;;;;7.13;4.10;;;19.10;94.60;;;;;;5023382;28;20076;-55
2023/06/03 12:03:05;;;;;;;7.45;4.10;;;19.10;94.50;;;;;;5020682;28;20087;-57
2023/06/03 12:05:30;;;;;;;9.18;5.97;;;19.10;94.70;;;;;;5018322;28;20121;-56
2023/06/03 12:07:59;;;;;;;12.90;4.57;;;19.10;94.70;;;;;;5019630;28;20860;-56
2023/06/03 12:10:25;;;;;;;8.13;3.75;;;19.20;94.60;;;;;;5023097;28;20148;-55
2023/06/03 12:12:57;;;;;;;6.72;4.18;;;19.30;94.30;;;;;;5022792;28;20509;-55
2023/06/03 12:15:24;;;;;;;8.98;5.38;;;19.30;94.00;;;;;;5023033;28;20056;-55
2023/06/03 12:17:51;;;;;;;7.07;3.75;;;19.30;94.10;;;;;;5023729;28;20523;-55
2023/06/03 12:20:27;;;;;;;8.05;4.90;;;19.30;94.10;;;;;;5024908;28;20043;-55
2023/06/03 12:23:03;;;;;;;12.82;4.15;;;19.40;93.80;;;;;;5020773;28;20489;-56
2023/06/03 12:25:30;;;;;;;14.00;4.82;;;19.50;93.70;;;;;;5021236;28;20085;-55
2023/06/03 12:27:56;;;;;;;9.23;4.05;;;19.50;93.60;;;;;;5017853;28;20038;-56
2023/06/03 12:30:35;;;;;;;12.13;5.10;;;19.50;93.50;;;;;;5023289;28;20045;-55
2023/06/03 12:33:01;;;;;;;7.78;3.88;;;19.60;93.30;;;;;;5022996;28;20076;-55
2023/06/03 12:35:28;;;;;;;7.35;3.85;;;19.60;92.60;;;;;;5022914;28;20690;-56
2023/06/03 12:38:07;;;;;;;12.65;4.55;;;19.70;91.90;;;;;;5023104;28;20472;-55
2023/06/03 12:40:35;;;;;;;12.02;4.80;;;19.70;92.00;;;;;;5022899;28;20054;-55
2023/06/03 12:43:02;;;;;;;5.78;3.05;;;19.80;91.70;;;;;;5055285;28;20042;-56
2023/06/03 12:45:29;;;;;;;9.43;3.97;;;19.70;91.90;;;;;;5021565;28;20104;-56